sensor_id;sensor_type;location;lat;lon;timestamp;P1;durP1;ratioP1;P2;durP2;ratioP2
46941;SDS011;32676;52.630;4.896;2022-12-16T00:00:43;13.93;;;1.50;;
46941;SDS011;32676;52.630;4.896;2022-12-16T00:03:10;3.63;;;1.02;;
46941;SDS011;32676;52.630;4.896;2022-12-16T00:05:36;2.88;;;0.60;;
46941;SDS011;32676;52.630;4.896;2022-12-16T00:08:03;2.63;;;0.90;;
46941;SDS011;32676;52.630;4.896;2022-12-16T00:10:30;5.03;;;2.03;;
46941;SDS011;32676;52.630;4.896;2022-12-16T00:13:17;4.47;;;1.38;;
46941;SDS011;32676;52.630;4.896;2022-12-16T00:15:45;5.45;;;1.33;;
46941;SDS011;32676;52.630;4.896;2022-12-16T00:18:12;5.78;;;1.00;;
46941;SDS011;32676;52.630;4.896;2022-12-16T00:20:42;9.50;;;0.73;;
46941;SDS011;32676;52.630;4.896;2022-12-16T00:23:09;4.07;;;0.95;;
46941;SDS011;32676;52.630;4.896;2022-12-16T00:25:35;7.35;;;0.95;;
46941;SDS011;32676;52.630;4.896;2022-12-16T00:28:02;6.18;;;1.92;;
46941;SDS011;32676;52.630;4.896;2022-12-16T00:30:30;12.90;;;1.02;;
46941;SDS011;32676;52.630;4.896;2022-12-16T00:32:56;8.15;;;1.73;;
46941;SDS011;32676;52.630;4.896;2022-12-16T00:35:23;3.58;;;1.20;;
46941;SDS011;32676;52.630;4.896;2022-12-16T00:37:50;10.00;;;1.13;;
46941;SDS011;32676;52.630;4.896;2022-12-16T00:40:16;12.93;;;2.25;;
46941;SDS011;32676;52.630;4.896;2022-12-16T00:42:44;7.00;;;1.23;;
46941;SDS011;32676;52.630;4.896;2022-12-16T00:45:10;4.72;;;0.68;;
46941;SDS011;32676;52.630;4.896;2022-12-16T00:47:38;7.78;;;1.15;;
46941;SDS011;32676;52.630;4.896;2022-12-16T00:50:05;4.22;;;0.85;;
46941;SDS011;32676;52.630;4.896;2022-12-16T00:52:33;6.28;;;1.02;;
46941;SDS011;32676;52.630;4.896;2022-12-16T00:54:59;7.15;;;0.77;;
46941;SDS011;32676;52.630;4.896;2022-12-16T00:57:26;6.53;;;0.75;;
46941;SDS011;32676;52.630;4.896;2022-12-16T00:59:53;12.77;;;1.52;;
46941;SDS011;32676;52.630;4.896;2022-12-16T01:02:19;5.25;;;0.93;;
46941;SDS011;32676;52.630;4.896;2022-12-16T01:04:47;2.95;;;1.17;;
46941;SDS011;32676;52.630;4.896;2022-12-16T01:07:14;4.63;;;0.32;;
46941;SDS011;32676;52.630;4.896;2022-12-16T01:09:41;2.47;;;0.57;;
46941;SDS011;32676;52.630;4.896;2022-12-16T01:12:07;4.57;;;0.85;;
46941;SDS011;32676;52.630;4.896;2022-12-16T01:14:34;14.70;;;2.55;;
46941;SDS011;32676;52.630;4.896;2022-12-16T01:17:01;3.65;;;0.60;;
46941;SDS011;32676;52.630;4.896;2022-12-16T01:19:27;4.35;;;0.95;;
46941;SDS011;32676;52.630;4.896;2022-12-16T01:21:55;11.20;;;1.30;;
46941;SDS011;32676;52.630;4.896;2022-12-16T01:24:21;26.40;;;5.20;;
46941;SDS011;32676;52.630;4.896;2022-12-16T01:26:48;11.32;;;1.15;;
46941;SDS011;32676;52.630;4.896;2022-12-16T01:29:14;5.07;;;1.05;;
46941;SDS011;32676;52.630;4.896;2022-12-16T01:31:41;8.73;;;1.02;;
46941;SDS011;32676;52.630;4.896;2022-12-16T01:34:07;7.20;;;0.90;;
46941;SDS011;32676;52.630;4.896;2022-12-16T01:36:34;5.55;;;1.45;;
46941;SDS011;32676;52.630;4.896;2022-12-16T01:39:02;2.47;;;0.50;;
46941;SDS011;32676;52.630;4.896;2022-12-16T01:41:29;9.35;;;0.80;;
46941;SDS011;32676;52.630;4.896;2022-12-16T01:44:09;12.85;;;2.00;;
46941;SDS011;32676;52.630;4.896;2022-12-16T01:46:38;3.38;;;1.27;;
46941;SDS011;32676;52.630;4.896;2022-12-16T01:49:07;7.88;;;1.50;;
46941;SDS011;32676;52.630;4.896;2022-12-16T01:51:38;11.18;;;1.58;;
46941;SDS011;32676;52.630;4.896;2022-12-16T01:54:10;8.77;;;1.77;;
46941;SDS011;32676;52.630;4.896;2022-12-16T01:56:40;7.30;;;1.38;;
46941;SDS011;32676;52.630;4.896;2022-12-16T01:59:10;6.03;;;1.40;;
46941;SDS011;32676;52.630;4.896;2022-12-16T02:01:38;8.75;;;0.88;;
46941;SDS011;32676;52.630;4.896;2022-12-16T02:04:05;11.15;;;3.05;;
46941;SDS011;32676;52.630;4.896;2022-12-16T02:06:31;5.60;;;0.90;;
46941;SDS011;32676;52.630;4.896;2022-12-16T02:08:59;6.55;;;0.90;;
46941;SDS011;32676;52.630;4.896;2022-12-16T02:11:41;6.55;;;0.60;;
46941;SDS011;32676;52.630;4.896;2022-12-16T02:14:30;8.70;;;0.77;;
46941;SDS011;32676;52.630;4.896;2022-12-16T02:17:19;5.15;;;1.63;;
46941;SDS011;32676;52.630;4.896;2022-12-16T02:23:01;7.60;;;1.60;;
46941;SDS011;32676;52.630;4.896;2022-12-16T02:25:46;4.90;;;0.90;;
46941;SDS011;32676;52.630;4.896;2022-12-16T02:28:34;3.72;;;1.08;;
46941;SDS011;32676;52.630;4.896;2022-12-16T02:31:20;6.72;;;1.27;;
46941;SDS011;32676;52.630;4.896;2022-12-16T02:34:00;3.92;;;0.60;;
46941;SDS011;32676;52.630;4.896;2022-12-16T02:36:40;5.40;;;0.77;;
46941;SDS011;32676;52.630;4.896;2022-12-16T02:39:17;8.68;;;1.27;;
46941;SDS011;32676;52.630;4.896;2022-12-16T02:41:49;6.30;;;0.75;;
46941;SDS011;32676;52.630;4.896;2022-12-16T02:44:19;1.80;;;0.98;;
46941;SDS011;32676;52.630;4.896;2022-12-16T02:46:54;6.22;;;0.90;;
46941;SDS011;32676;52.630;4.896;2022-12-16T02:49:42;4.28;;;0.80;;
46941;SDS011;32676;52.630;4.896;2022-12-16T02:52:11;9.65;;;0.95;;
46941;SDS011;32676;52.630;4.896;2022-12-16T02:54:39;3.92;;;0.50;;
46941;SDS011;32676;52.630;4.896;2022-12-16T02:57:09;5.47;;;1.00;;
46941;SDS011;32676;52.630;4.896;2022-12-16T02:59:46;10.57;;;1.48;;
46941;SDS011;32676;52.630;4.896;2022-12-16T03:02:23;3.65;;;0.98;;
46941;SDS011;32676;52.630;4.896;2022-12-16T03:04:55;6.28;;;1.58;;
46941;SDS011;32676;52.630;4.896;2022-12-16T03:07:27;2.38;;;0.70;;
46941;SDS011;32676;52.630;4.896;2022-12-16T03:09:58;5.45;;;1.00;;
46941;SDS011;32676;52.630;4.896;2022-12-16T03:12:27;4.95;;;0.82;;
46941;SDS011;32676;52.630;4.896;2022-12-16T03:14:54;9.23;;;1.23;;
46941;SDS011;32676;52.630;4.896;2022-12-16T03:17:23;5.97;;;1.23;;
46941;SDS011;32676;52.630;4.896;2022-12-16T03:19:54;1.33;;;0.45;;
46941;SDS011;32676;52.630;4.896;2022-12-16T03:22:26;8.63;;;1.02;;
46941;SDS011;32676;52.630;4.896;2022-12-16T03:24:55;4.03;;;0.70;;
46941;SDS011;32676;52.630;4.896;2022-12-16T03:27:23;7.63;;;1.55;;
46941;SDS011;32676;52.630;4.896;2022-12-16T03:29:55;4.32;;;0.63;;
46941;SDS011;32676;52.630;4.896;2022-12-16T03:32:31;4.07;;;0.65;;
46941;SDS011;32676;52.630;4.896;2022-12-16T03:35:01;6.50;;;0.93;;
46941;SDS011;32676;52.630;4.896;2022-12-16T03:37:38;9.38;;;0.98;;
46941;SDS011;32676;52.630;4.896;2022-12-16T03:40:07;6.22;;;0.60;;
46941;SDS011;32676;52.630;4.896;2022-12-16T03:42:35;8.00;;;1.65;;
46941;SDS011;32676;52.630;4.896;2022-12-16T03:45:04;5.60;;;1.45;;
46941;SDS011;32676;52.630;4.896;2022-12-16T03:47:34;8.40;;;0.77;;
46941;SDS011;32676;52.630;4.896;2022-12-16T03:50:03;5.72;;;1.73;;
46941;SDS011;32676;52.630;4.896;2022-12-16T03:52:30;2.85;;;0.88;;
46941;SDS011;32676;52.630;4.896;2022-12-16T03:54:56;3.25;;;0.70;;
46941;SDS011;32676;52.630;4.896;2022-12-16T03:57:23;3.50;;;0.80;;
46941;SDS011;32676;52.630;4.896;2022-12-16T03:59:49;6.43;;;0.73;;
46941;SDS011;32676;52.630;4.896;2022-12-16T04:02:16;4.10;;;1.13;;
46941;SDS011;32676;52.630;4.896;2022-12-16T04:04:43;7.85;;;1.35;;
46941;SDS011;32676;52.630;4.896;2022-12-16T04:07:10;9.27;;;2.15;;
46941;SDS011;32676;52.630;4.896;2022-12-16T04:09:45;3.97;;;0.68;;
46941;SDS011;32676;52.630;4.896;2022-12-16T04:12:12;3.30;;;0.82;;
46941;SDS011;32676;52.630;4.896;2022-12-16T04:14:56;5.13;;;1.58;;
46941;SDS011;32676;52.630;4.896;2022-12-16T04:17:40;9.77;;;1.42;;
46941;SDS011;32676;52.630;4.896;2022-12-16T04:20:27;5.63;;;0.65;;
46941;SDS011;32676;52.630;4.896;2022-12-16T04:23:14;10.02;;;1.02;;
46941;SDS011;32676;52.630;4.896;2022-12-16T04:25:58;3.55;;;1.65;;
46941;SDS011;32676;52.630;4.896;2022-12-16T04:28:25;7.43;;;0.82;;
46941;SDS011;32676;52.630;4.896;2022-12-16T04:30:51;2.60;;;0.73;;
46941;SDS011;32676;52.630;4.896;2022-12-16T04:33:18;6.72;;;1.50;;
46941;SDS011;32676;52.630;4.896;2022-12-16T04:36:04;3.75;;;0.85;;
46941;SDS011;32676;52.630;4.896;2022-12-16T04:38:48;6.03;;;0.90;;
46941;SDS011;32676;52.630;4.896;2022-12-16T04:41:32;6.95;;;1.20;;
46941;SDS011;32676;52.630;4.896;2022-12-16T04:44:16;5.72;;;0.95;;
46941;SDS011;32676;52.630;4.896;2022-12-16T04:47:06;4.00;;;1.00;;
46941;SDS011;32676;52.630;4.896;2022-12-16T04:49:50;4.85;;;2.08;;
46941;SDS011;32676;52.630;4.896;2022-12-16T04:52:31;7.70;;;1.23;;
46941;SDS011;32676;52.630;4.896;2022-12-16T04:58:00;7.40;;;1.48;;
46941;SDS011;32676;52.630;4.896;2022-12-16T05:03:29;5.07;;;1.13;;
46941;SDS011;32676;52.630;4.896;2022-12-16T05:06:13;4.78;;;1.23;;
46941;SDS011;32676;52.630;4.896;2022-12-16T05:08:59;5.77;;;1.33;;
46941;SDS011;32676;52.630;4.896;2022-12-16T05:11:43;7.70;;;1.20;;
46941;SDS011;32676;52.630;4.896;2022-12-16T05:14:27;3.05;;;0.80;;
46941;SDS011;32676;52.630;4.896;2022-12-16T05:17:12;4.45;;;1.10;;
46941;SDS011;32676;52.630;4.896;2022-12-16T05:19:56;3.28;;;0.90;;
46941;SDS011;32676;52.630;4.896;2022-12-16T05:22:41;6.40;;;0.90;;
46941;SDS011;32676;52.630;4.896;2022-12-16T05:25:26;5.85;;;0.93;;
46941;SDS011;32676;52.630;4.896;2022-12-16T05:28:10;3.35;;;0.73;;
46941;SDS011;32676;52.630;4.896;2022-12-16T05:30:54;4.32;;;1.08;;
46941;SDS011;32676;52.630;4.896;2022-12-16T05:33:38;9.27;;;1.42;;
46941;SDS011;32676;52.630;4.896;2022-12-16T05:36:23;5.18;;;1.33;;
46941;SDS011;32676;52.630;4.896;2022-12-16T05:39:07;12.82;;;2.08;;
46941;SDS011;32676;52.630;4.896;2022-12-16T05:41:52;5.18;;;1.70;;
46941;SDS011;32676;52.630;4.896;2022-12-16T05:44:37;5.68;;;0.90;;
46941;SDS011;32676;52.630;4.896;2022-12-16T05:47:21;6.20;;;1.30;;
46941;SDS011;32676;52.630;4.896;2022-12-16T05:50:05;9.63;;;1.00;;
46941;SDS011;32676;52.630;4.896;2022-12-16T05:52:49;2.13;;;0.87;;
46941;SDS011;32676;52.630;4.896;2022-12-16T05:55:33;8.90;;;2.07;;
46941;SDS011;32676;52.630;4.896;2022-12-16T05:58:19;7.95;;;2.03;;
46941;SDS011;32676;52.630;4.896;2022-12-16T06:01:03;8.83;;;1.37;;
46941;SDS011;32676;52.630;4.896;2022-12-16T06:03:48;3.40;;;1.20;;
46941;SDS011;32676;52.630;4.896;2022-12-16T06:06:32;6.07;;;1.98;;
46941;SDS011;32676;52.630;4.896;2022-12-16T06:09:16;6.85;;;0.73;;
46941;SDS011;32676;52.630;4.896;2022-12-16T06:12:00;5.15;;;1.42;;
46941;SDS011;32676;52.630;4.896;2022-12-16T06:14:45;7.63;;;1.63;;
46941;SDS011;32676;52.630;4.896;2022-12-16T06:17:29;6.75;;;1.95;;
46941;SDS011;32676;52.630;4.896;2022-12-16T06:20:13;3.60;;;0.80;;
46941;SDS011;32676;52.630;4.896;2022-12-16T06:22:57;5.63;;;1.07;;
46941;SDS011;32676;52.630;4.896;2022-12-16T06:25:41;6.88;;;1.00;;
46941;SDS011;32676;52.630;4.896;2022-12-16T06:28:25;8.85;;;1.88;;
46941;SDS011;32676;52.630;4.896;2022-12-16T06:31:11;2.30;;;0.93;;
46941;SDS011;32676;52.630;4.896;2022-12-16T06:33:56;2.70;;;1.17;;
46941;SDS011;32676;52.630;4.896;2022-12-16T06:36:39;6.03;;;1.50;;
46941;SDS011;32676;52.630;4.896;2022-12-16T06:39:23;13.43;;;2.22;;
46941;SDS011;32676;52.630;4.896;2022-12-16T06:42:08;3.10;;;1.00;;
46941;SDS011;32676;52.630;4.896;2022-12-16T06:45:00;6.95;;;0.98;;
46941;SDS011;32676;52.630;4.896;2022-12-16T06:47:46;7.13;;;1.13;;
46941;SDS011;32676;52.630;4.896;2022-12-16T06:53:13;7.93;;;1.25;;
46941;SDS011;32676;52.630;4.896;2022-12-16T06:55:58;9.98;;;3.40;;
46941;SDS011;32676;52.630;4.896;2022-12-16T06:58:42;6.80;;;1.30;;
46941;SDS011;32676;52.630;4.896;2022-12-16T07:01:26;3.83;;;1.00;;
46941;SDS011;32676;52.630;4.896;2022-12-16T07:04:11;12.37;;;3.27;;
46941;SDS011;32676;52.630;4.896;2022-12-16T07:06:55;5.95;;;1.90;;
46941;SDS011;32676;52.630;4.896;2022-12-16T07:09:39;7.57;;;1.20;;
46941;SDS011;32676;52.630;4.896;2022-12-16T07:12:23;5.97;;;2.03;;
46941;SDS011;32676;52.630;4.896;2022-12-16T07:15:07;8.32;;;0.95;;
46941;SDS011;32676;52.630;4.896;2022-12-16T07:17:52;7.13;;;1.55;;
46941;SDS011;32676;52.630;4.896;2022-12-16T07:20:37;4.88;;;1.88;;
46941;SDS011;32676;52.630;4.896;2022-12-16T07:23:21;4.80;;;2.03;;
46941;SDS011;32676;52.630;4.896;2022-12-16T07:26:05;8.63;;;4.22;;
46941;SDS011;32676;52.630;4.896;2022-12-16T07:28:49;10.02;;;2.85;;
46941;SDS011;32676;52.630;4.896;2022-12-16T07:31:33;7.65;;;1.42;;
46941;SDS011;32676;52.630;4.896;2022-12-16T07:34:17;6.32;;;2.15;;
46941;SDS011;32676;52.630;4.896;2022-12-16T07:37:02;7.45;;;1.73;;
46941;SDS011;32676;52.630;4.896;2022-12-16T07:39:46;6.57;;;1.35;;
46941;SDS011;32676;52.630;4.896;2022-12-16T07:42:30;5.72;;;1.35;;
46941;SDS011;32676;52.630;4.896;2022-12-16T07:45:14;12.88;;;2.75;;
46941;SDS011;32676;52.630;4.896;2022-12-16T07:47:58;8.50;;;1.80;;
46941;SDS011;32676;52.630;4.896;2022-12-16T07:50:42;18.42;;;3.45;;
46941;SDS011;32676;52.630;4.896;2022-12-16T07:53:28;12.65;;;4.10;;
46941;SDS011;32676;52.630;4.896;2022-12-16T07:56:12;8.80;;;2.00;;
46941;SDS011;32676;52.630;4.896;2022-12-16T07:58:55;7.68;;;1.90;;
46941;SDS011;32676;52.630;4.896;2022-12-16T08:01:40;13.15;;;6.72;;
46941;SDS011;32676;52.630;4.896;2022-12-16T08:04:24;10.73;;;2.72;;
46941;SDS011;32676;52.630;4.896;2022-12-16T08:07:08;6.88;;;2.50;;
46941;SDS011;32676;52.630;4.896;2022-12-16T08:09:53;8.10;;;1.95;;
46941;SDS011;32676;52.630;4.896;2022-12-16T08:12:37;7.75;;;2.10;;
46941;SDS011;32676;52.630;4.896;2022-12-16T08:15:21;7.20;;;2.50;;
46941;SDS011;32676;52.630;4.896;2022-12-16T08:18:05;6.15;;;2.28;;
46941;SDS011;32676;52.630;4.896;2022-12-16T08:20:49;6.15;;;1.73;;
46941;SDS011;32676;52.630;4.896;2022-12-16T08:23:33;36.10;;;12.32;;
46941;SDS011;32676;52.630;4.896;2022-12-16T08:26:14;43.23;;;16.67;;
46941;SDS011;32676;52.630;4.896;2022-12-16T08:31:43;10.80;;;3.35;;
46941;SDS011;32676;52.630;4.896;2022-12-16T08:34:26;14.63;;;3.70;;
46941;SDS011;32676;52.630;4.896;2022-12-16T08:37:10;5.43;;;2.25;;
46941;SDS011;32676;52.630;4.896;2022-12-16T08:39:54;13.30;;;4.40;;
46941;SDS011;32676;52.630;4.896;2022-12-16T08:42:40;20.83;;;12.75;;
46941;SDS011;32676;52.630;4.896;2022-12-16T08:45:24;8.23;;;3.95;;
46941;SDS011;32676;52.630;4.896;2022-12-16T08:48:20;8.60;;;3.83;;
46941;SDS011;32676;52.630;4.896;2022-12-16T08:51:04;5.82;;;2.72;;
46941;SDS011;32676;52.630;4.896;2022-12-16T08:53:50;12.63;;;4.40;;
46941;SDS011;32676;52.630;4.896;2022-12-16T08:59:19;15.52;;;4.82;;
46941;SDS011;32676;52.630;4.896;2022-12-16T09:02:03;27.17;;;10.68;;
46941;SDS011;32676;52.630;4.896;2022-12-16T09:04:48;17.00;;;4.20;;
46941;SDS011;32676;52.630;4.896;2022-12-16T09:07:32;33.22;;;7.65;;
46941;SDS011;32676;52.630;4.896;2022-12-16T09:10:16;16.48;;;8.63;;
46941;SDS011;32676;52.630;4.896;2022-12-16T09:13:04;19.80;;;6.72;;
46941;SDS011;32676;52.630;4.896;2022-12-16T09:15:50;18.20;;;9.38;;
46941;SDS011;32676;52.630;4.896;2022-12-16T09:18:34;13.48;;;5.75;;
46941;SDS011;32676;52.630;4.896;2022-12-16T09:21:18;20.13;;;6.32;;
46941;SDS011;32676;52.630;4.896;2022-12-16T09:24:02;14.63;;;5.97;;
46941;SDS011;32676;52.630;4.896;2022-12-16T09:26:46;17.10;;;5.22;;
46941;SDS011;32676;52.630;4.896;2022-12-16T09:29:30;12.55;;;3.50;;
46941;SDS011;32676;52.630;4.896;2022-12-16T09:32:16;10.77;;;4.50;;
46941;SDS011;32676;52.630;4.896;2022-12-16T09:35:00;10.10;;;4.18;;
46941;SDS011;32676;52.630;4.896;2022-12-16T09:37:44;15.30;;;6.28;;
46941;SDS011;32676;52.630;4.896;2022-12-16T09:40:29;21.77;;;5.25;;
46941;SDS011;32676;52.630;4.896;2022-12-16T09:43:17;8.30;;;2.70;;
46941;SDS011;32676;52.630;4.896;2022-12-16T09:46:17;10.25;;;2.97;;
46941;SDS011;32676;52.630;4.896;2022-12-16T09:49:14;8.40;;;2.78;;
46941;SDS011;32676;52.630;4.896;2022-12-16T09:52:03;4.55;;;1.73;;
46941;SDS011;32676;52.630;4.896;2022-12-16T09:54:49;9.02;;;2.75;;
46941;SDS011;32676;52.630;4.896;2022-12-16T09:57:33;5.53;;;1.98;;
46941;SDS011;32676;52.630;4.896;2022-12-16T10:00:19;8.13;;;2.28;;
46941;SDS011;32676;52.630;4.896;2022-12-16T10:03:05;7.53;;;3.42;;
46941;SDS011;32676;52.630;4.896;2022-12-16T10:06:00;4.88;;;1.98;;
46941;SDS011;32676;52.630;4.896;2022-12-16T10:08:51;6.68;;;2.90;;
46941;SDS011;32676;52.630;4.896;2022-12-16T10:11:44;5.85;;;2.80;;
46941;SDS011;32676;52.630;4.896;2022-12-16T10:14:38;4.72;;;1.48;;
46941;SDS011;32676;52.630;4.896;2022-12-16T10:17:27;7.35;;;1.45;;
46941;SDS011;32676;52.630;4.896;2022-12-16T10:20:12;20.52;;;2.72;;
46941;SDS011;32676;52.630;4.896;2022-12-16T10:23:12;6.05;;;1.48;;
46941;SDS011;32676;52.630;4.896;2022-12-16T10:26:04;4.50;;;1.88;;
46941;SDS011;32676;52.630;4.896;2022-12-16T10:28:53;5.70;;;1.30;;
46941;SDS011;32676;52.630;4.896;2022-12-16T10:31:46;3.80;;;1.40;;
46941;SDS011;32676;52.630;4.896;2022-12-16T10:34:31;17.90;;;2.20;;
46941;SDS011;32676;52.630;4.896;2022-12-16T10:37:19;7.35;;;1.50;;
46941;SDS011;32676;52.630;4.896;2022-12-16T10:40:17;11.40;;;4.63;;
46941;SDS011;32676;52.630;4.896;2022-12-16T10:43:17;4.75;;;1.50;;
46941;SDS011;32676;52.630;4.896;2022-12-16T10:46:05;4.32;;;1.15;;
46941;SDS011;32676;52.630;4.896;2022-12-16T10:48:55;11.00;;;1.42;;
46941;SDS011;32676;52.630;4.896;2022-12-16T10:51:39;10.10;;;3.20;;
46941;SDS011;32676;52.630;4.896;2022-12-16T10:54:26;8.15;;;3.55;;
46941;SDS011;32676;52.630;4.896;2022-12-16T10:57:19;6.32;;;2.72;;
46941;SDS011;32676;52.630;4.896;2022-12-16T11:00:11;6.38;;;2.25;;
46941;SDS011;32676;52.630;4.896;2022-12-16T11:03:18;6.22;;;1.58;;
46941;SDS011;32676;52.630;4.896;2022-12-16T11:06:03;7.00;;;1.60;;
46941;SDS011;32676;52.630;4.896;2022-12-16T11:08:49;25.88;;;3.20;;
46941;SDS011;32676;52.630;4.896;2022-12-16T11:11:33;4.88;;;1.10;;
46941;SDS011;32676;52.630;4.896;2022-12-16T11:14:20;6.45;;;1.35;;
46941;SDS011;32676;52.630;4.896;2022-12-16T11:17:13;8.25;;;2.00;;
46941;SDS011;32676;52.630;4.896;2022-12-16T11:20:07;4.03;;;1.55;;
46941;SDS011;32676;52.630;4.896;2022-12-16T11:23:16;9.63;;;3.08;;
46941;SDS011;32676;52.630;4.896;2022-12-16T11:26:07;15.55;;;3.10;;
46941;SDS011;32676;52.630;4.896;2022-12-16T11:32:14;21.85;;;6.93;;
46941;SDS011;32676;52.630;4.896;2022-12-16T11:35:02;3.85;;;1.35;;
46941;SDS011;32676;52.630;4.896;2022-12-16T11:37:54;3.42;;;1.90;;
46941;SDS011;32676;52.630;4.896;2022-12-16T11:40:40;8.13;;;1.95;;
46941;SDS011;32676;52.630;4.896;2022-12-16T11:43:24;6.67;;;1.77;;
46941;SDS011;32676;52.630;4.896;2022-12-16T11:46:14;6.63;;;1.65;;
46941;SDS011;32676;52.630;4.896;2022-12-16T11:49:05;12.70;;;2.75;;
46941;SDS011;32676;52.630;4.896;2022-12-16T11:52:00;12.32;;;1.98;;
46941;SDS011;32676;52.630;4.896;2022-12-16T11:54:49;7.07;;;1.25;;
46941;SDS011;32676;52.630;4.896;2022-12-16T11:57:42;4.18;;;1.33;;
46941;SDS011;32676;52.630;4.896;2022-12-16T12:00:32;3.50;;;0.88;;
46941;SDS011;32676;52.630;4.896;2022-12-16T12:03:28;3.63;;;1.23;;
46941;SDS011;32676;52.630;4.896;2022-12-16T12:06:20;6.53;;;2.47;;
46941;SDS011;32676;52.630;4.896;2022-12-16T12:09:11;6.80;;;1.25;;
46941;SDS011;32676;52.630;4.896;2022-12-16T12:12:04;6.38;;;1.70;;
46941;SDS011;32676;52.630;4.896;2022-12-16T12:14:58;1.98;;;0.70;;
46941;SDS011;32676;52.630;4.896;2022-12-16T12:17:50;5.47;;;1.05;;
46941;SDS011;32676;52.630;4.896;2022-12-16T12:20:47;2.85;;;0.70;;
46941;SDS011;32676;52.630;4.896;2022-12-16T12:23:44;2.50;;;0.90;;
46941;SDS011;32676;52.630;4.896;2022-12-16T12:29:23;2.42;;;0.60;;
46941;SDS011;32676;52.630;4.896;2022-12-16T12:32:17;3.45;;;0.63;;
46941;SDS011;32676;52.630;4.896;2022-12-16T12:35:11;6.72;;;1.50;;
46941;SDS011;32676;52.630;4.896;2022-12-16T12:38:04;9.52;;;1.73;;
46941;SDS011;32676;52.630;4.896;2022-12-16T12:40:56;6.00;;;1.00;;
46941;SDS011;32676;52.630;4.896;2022-12-16T12:43:49;5.15;;;1.02;;
46941;SDS011;32676;52.630;4.896;2022-12-16T12:46:44;2.42;;;0.80;;
46941;SDS011;32676;52.630;4.896;2022-12-16T12:49:34;2.97;;;0.98;;
46941;SDS011;32676;52.630;4.896;2022-12-16T12:52:29;5.95;;;1.63;;
46941;SDS011;32676;52.630;4.896;2022-12-16T12:55:34;6.20;;;2.33;;
46941;SDS011;32676;52.630;4.896;2022-12-16T12:58:27;3.42;;;1.05;;
46941;SDS011;32676;52.630;4.896;2022-12-16T13:01:12;5.53;;;2.13;;
46941;SDS011;32676;52.630;4.896;2022-12-16T13:04:02;8.93;;;1.20;;
46941;SDS011;32676;52.630;4.896;2022-12-16T13:06:52;21.65;;;2.83;;
46941;SDS011;32676;52.630;4.896;2022-12-16T13:09:38;3.95;;;1.42;;
46941;SDS011;32676;52.630;4.896;2022-12-16T13:12:26;7.90;;;0.60;;
46941;SDS011;32676;52.630;4.896;2022-12-16T13:18:23;3.63;;;0.75;;
46941;SDS011;32676;52.630;4.896;2022-12-16T13:24:40;5.18;;;1.27;;
46941;SDS011;32676;52.630;4.896;2022-12-16T13:27:43;3.58;;;0.73;;
46941;SDS011;32676;52.630;4.896;2022-12-16T13:30:29;3.10;;;1.00;;
46941;SDS011;32676;52.630;4.896;2022-12-16T13:33:21;2.05;;;0.80;;
46941;SDS011;32676;52.630;4.896;2022-12-16T13:36:08;8.40;;;1.60;;
46941;SDS011;32676;52.630;4.896;2022-12-16T13:38:54;4.32;;;0.95;;
46941;SDS011;32676;52.630;4.896;2022-12-16T13:41:47;4.70;;;0.75;;
46941;SDS011;32676;52.630;4.896;2022-12-16T13:44:53;1.77;;;0.75;;
46941;SDS011;32676;52.630;4.896;2022-12-16T13:47:58;5.80;;;1.10;;
46941;SDS011;32676;52.630;4.896;2022-12-16T13:50:50;2.08;;;0.80;;
46941;SDS011;32676;52.630;4.896;2022-12-16T13:53:38;2.83;;;0.90;;
46941;SDS011;32676;52.630;4.896;2022-12-16T13:56:29;2.67;;;0.93;;
46941;SDS011;32676;52.630;4.896;2022-12-16T13:59:17;3.85;;;1.45;;
46941;SDS011;32676;52.630;4.896;2022-12-16T14:02:12;2.80;;;0.88;;
46941;SDS011;32676;52.630;4.896;2022-12-16T14:05:02;8.13;;;1.17;;
46941;SDS011;32676;52.630;4.896;2022-12-16T14:07:48;4.80;;;0.88;;
46941;SDS011;32676;52.630;4.896;2022-12-16T14:10:38;4.78;;;2.50;;
46941;SDS011;32676;52.630;4.896;2022-12-16T14:13:25;11.43;;;3.60;;
46941;SDS011;32676;52.630;4.896;2022-12-16T14:16:15;7.07;;;1.77;;
46941;SDS011;32676;52.630;4.896;2022-12-16T14:19:09;18.08;;;5.57;;
46941;SDS011;32676;52.630;4.896;2022-12-16T14:22:02;32.70;;;11.05;;
46941;SDS011;32676;52.630;4.896;2022-12-16T14:25:03;68.78;;;21.58;;
46941;SDS011;32676;52.630;4.896;2022-12-16T14:27:49;45.88;;;14.00;;
46941;SDS011;32676;52.630;4.896;2022-12-16T14:30:34;18.25;;;5.82;;
46941;SDS011;32676;52.630;4.896;2022-12-16T14:36:16;6.07;;;1.75;;
46941;SDS011;32676;52.630;4.896;2022-12-16T14:39:01;5.40;;;1.65;;
46941;SDS011;32676;52.630;4.896;2022-12-16T14:41:50;3.10;;;0.93;;
46941;SDS011;32676;52.630;4.896;2022-12-16T14:44:34;4.15;;;1.35;;
46941;SDS011;32676;52.630;4.896;2022-12-16T14:47:25;3.92;;;1.30;;
46941;SDS011;32676;52.630;4.896;2022-12-16T14:50:17;3.75;;;1.48;;
46941;SDS011;32676;52.630;4.896;2022-12-16T14:53:13;3.70;;;0.95;;
46941;SDS011;32676;52.630;4.896;2022-12-16T14:56:15;4.00;;;1.80;;
46941;SDS011;32676;52.630;4.896;2022-12-16T14:59:13;9.60;;;1.75;;
46941;SDS011;32676;52.630;4.896;2022-12-16T15:01:59;4.15;;;1.02;;
46941;SDS011;32676;52.630;4.896;2022-12-16T15:04:56;6.95;;;1.63;;
46941;SDS011;32676;52.630;4.896;2022-12-16T15:07:41;7.97;;;1.33;;
46941;SDS011;32676;52.630;4.896;2022-12-16T15:10:25;3.53;;;0.90;;
46941;SDS011;32676;52.630;4.896;2022-12-16T15:13:09;3.72;;;0.75;;
46941;SDS011;32676;52.630;4.896;2022-12-16T15:15:59;3.65;;;1.15;;
46941;SDS011;32676;52.630;4.896;2022-12-16T15:18:45;8.90;;;2.72;;
46941;SDS011;32676;52.630;4.896;2022-12-16T15:21:34;19.42;;;6.57;;
46941;SDS011;32676;52.630;4.896;2022-12-16T15:24:19;21.95;;;6.90;;
46941;SDS011;32676;52.630;4.896;2022-12-16T15:27:22;15.60;;;6.38;;
46941;SDS011;32676;52.630;4.896;2022-12-16T15:30:30;17.10;;;6.40;;
46941;SDS011;32676;52.630;4.896;2022-12-16T15:33:23;17.52;;;5.13;;
46941;SDS011;32676;52.630;4.896;2022-12-16T15:36:18;17.52;;;5.00;;
46941;SDS011;32676;52.630;4.896;2022-12-16T15:39:09;15.57;;;5.35;;
46941;SDS011;32676;52.630;4.896;2022-12-16T15:42:00;15.50;;;4.93;;
46941;SDS011;32676;52.630;4.896;2022-12-16T15:44:45;10.02;;;3.67;;
46941;SDS011;32676;52.630;4.896;2022-12-16T15:47:40;12.40;;;4.15;;
46941;SDS011;32676;52.630;4.896;2022-12-16T15:50:26;9.82;;;3.20;;
46941;SDS011;32676;52.630;4.896;2022-12-16T15:53:16;8.25;;;2.47;;
46941;SDS011;32676;52.630;4.896;2022-12-16T15:56:18;8.38;;;4.43;;
46941;SDS011;32676;52.630;4.896;2022-12-16T15:59:14;17.92;;;4.53;;
46941;SDS011;32676;52.630;4.896;2022-12-16T16:02:05;7.32;;;2.85;;
46941;SDS011;32676;52.630;4.896;2022-12-16T16:04:56;6.35;;;2.25;;
46941;SDS011;32676;52.630;4.896;2022-12-16T16:07:42;4.32;;;2.28;;
46941;SDS011;32676;52.630;4.896;2022-12-16T16:10:40;7.43;;;2.42;;
46941;SDS011;32676;52.630;4.896;2022-12-16T16:13:25;9.43;;;2.40;;
46941;SDS011;32676;52.630;4.896;2022-12-16T16:16:09;12.63;;;3.83;;
46941;SDS011;32676;52.630;4.896;2022-12-16T16:18:54;9.15;;;4.15;;
46941;SDS011;32676;52.630;4.896;2022-12-16T16:21:38;12.95;;;3.90;;
46941;SDS011;32676;52.630;4.896;2022-12-16T16:24:35;8.07;;;4.68;;
46941;SDS011;32676;52.630;4.896;2022-12-16T16:27:19;6.50;;;2.90;;
46941;SDS011;32676;52.630;4.896;2022-12-16T16:30:03;6.23;;;2.87;;
46941;SDS011;32676;52.630;4.896;2022-12-16T16:32:48;9.45;;;3.63;;
46941;SDS011;32676;52.630;4.896;2022-12-16T16:35:32;8.27;;;2.83;;
46941;SDS011;32676;52.630;4.896;2022-12-16T16:38:16;10.60;;;4.53;;
46941;SDS011;32676;52.630;4.896;2022-12-16T16:41:02;17.42;;;6.47;;
46941;SDS011;32676;52.630;4.896;2022-12-16T16:43:47;14.88;;;5.63;;
46941;SDS011;32676;52.630;4.896;2022-12-16T16:46:31;13.63;;;6.75;;
46941;SDS011;32676;52.630;4.896;2022-12-16T16:49:20;14.55;;;5.45;;
46941;SDS011;32676;52.630;4.896;2022-12-16T16:52:09;11.85;;;5.38;;